Terminal Aerodrome Forecast
Issued by NWS

Home | Current Version | Previous Version | Text Only | Print | Product List | Glossary On
Versions: 1 2 3 4 5 6 7 8 9 10 11 12 13 14 15 16 17
797
FTUS46 KSEW 191729
TAFBFI
TAF
KBFI 191729Z 1918/2018 16009KT P6SM VCSH SCT017 BKN035 OVC050
      TEMPO 1919/1923 4SM -SHRA BR BKN017 OVC026
     FM201000 17010KT P6SM VCSH OVC023=

USA.gov is the U.S. government's official web portal to all federal, state and local government web resources and services.